1899 NOT_NAMED (1899309N12117)


IBTrACS version v04r00. Visit IBTrACS website for data access.
Please direct all questions to the IBTrACS Q and A forum

Storm track - Intensity - Wind Radii - Intensity Data - Source Data - All data

Summary Information

Storm ID 1899309N12117
Start Nov 4 16Z
End Nov 9 04Z
ATCF IDs
Track status Best track data.

Storm track plot

Map of storm track

Intensity plots

No Intensity information for this storm


Radial wind information

No radial wind information for this storm


Position and Intensity Table

BASIN ISO_TIME_________ NATURE LAT LON
degrees north degrees east
WP 1899-11-04 16:00:00 NR 11.80 117.10
WP 18:00:00 NR 11.94 116.73
WP 21:00:00 NR 12.14 116.20
WP 1899-11-05 00:00:00 NR 12.31 115.69
WP 03:00:00 NR 12.46 115.24
WP 04:00:00 NR 12.50 115.10
WP 06:00:00 NR 12.56 114.85
WP 09:00:00 NR 12.64 114.53
WP 12:00:00 NR 12.70 114.25
WP 15:00:00 NR 12.77 113.99
WP 16:00:00 NR 12.80 113.90
WP 18:00:00 NR 12.88 113.72
WP 21:00:00 NR 13.01 113.46
WP 1899-11-06 00:00:00 NR 13.17 113.19
WP 03:00:00 NR 13.34 112.90
WP 04:00:00 NR 13.40 112.80
WP 06:00:00 NR 13.52 112.56
WP 09:00:00 NR 13.71 112.18
WP 12:00:00 NR 13.91 111.79
WP 15:00:00 NR 14.13 111.42
WP 16:00:00 NR 14.20 111.30
WP 18:00:00 NR 14.35 111.10
WP 21:00:00 NR 14.57 110.82
WP 1899-11-07 00:00:00 NR 14.80 110.55
WP 03:00:00 NR 15.03 110.29
WP 04:00:00 NR 15.10 110.20
WP 06:00:00 NR 15.23 110.00
WP 09:00:00 NR 15.41 109.69
WP 12:00:00 NR 15.61 109.38
WP 15:00:00 NR 15.82 109.09
WP 16:00:00 NR 15.90 109.00
WP 18:00:00 NR 16.07 108.83
WP 21:00:00 NR 16.36 108.59
WP 1899-11-08 00:00:00 NR 16.67 108.38
WP 03:00:00 NR 16.99 108.17
WP 04:00:00 NR 17.10 108.10
WP 06:00:00 NR 17.30 107.95
WP 09:00:00 NR 17.61 107.74
WP 12:00:00 NR 17.94 107.54
WP 15:00:00 NR 18.28 107.36
WP 16:00:00 NR 18.40 107.30
WP 18:00:00 NR 18.65 107.20
WP 21:00:00 NR 19.04 107.06
WP 1899-11-09 00:00:00 NR 19.44 106.95
WP 03:00:00 NR 19.86 106.84
WP 04:00:00 NR 20.00 106.80

Source Information

Agency Information
USA
TOKYO
CMA
HKO
NEWDELHI
REUNION
BOM
NADI
WELLINGTON
DS824
TD9636 cons_worldwide_trop_cyclone_18710101-19891231-003:Line=2069
TD9635
NEUMANN
MLC

All available IBTrACS Data

SEASON BASIN SUBBASIN ISO_TIME_________ NATURE LAT LON DIST2LAND LANDFALL IFLAG USA SSHS TD9636 LAT TD9636 LON TD9636 STAGE STORM SPEED STORM DIR
Year degrees north degrees east km km 1 degrees north degrees east kts degrees
1899 WP MM 1899-11-04 16:00:00 NR 11.80 117.10 259 259 __________O___ -1 11.80 117.10 7 12 291
1899 WP MM 18:00:00 NR 11.94 116.73 304 304 __________P___ -1 11.94 116.73 7 11 291
1899 WP MM 21:00:00 NR 12.14 116.20 361 361 __________P___ -1 12.14 116.20 7 11 290
1899 WP MM 1899-11-05 00:00:00 NR 12.31 115.69 416 416 __________P___ -1 12.31 115.69 7 10 289
1899 WP MM 03:00:00 NR 12.46 115.24 466 466 __________P___ -1 12.46 115.24 7 9 288
1899 WP MM 04:00:00 NR 12.50 115.10 472 472 __________O___ -1 12.50 115.10 7 8 286
1899 WP MM 06:00:00 NR 12.56 114.85 495 502 __________P___ -1 12.56 114.85 7 7 284
1899 WP MM 09:00:00 NR 12.64 114.53 524 510 __________P___ -1 12.64 114.53 7 6 283
1899 WP MM 12:00:00 NR 12.70 114.25 510 488 __________P___ -1 12.70 114.25 7 5 284
1899 WP MM 15:00:00 NR 12.77 113.99 488 477 __________P___ -1 12.77 113.99 7 5 287
1899 WP MM 16:00:00 NR 12.80 113.90 477 455 __________O___ -1 12.80 113.90 7 6 293
1899 WP MM 18:00:00 NR 12.88 113.72 455 433 __________P___ -1 12.88 113.72 7 6 296
1899 WP MM 21:00:00 NR 13.01 113.46 433 401 __________P___ -1 13.01 113.46 7 6 299
1899 WP MM 1899-11-06 00:00:00 NR 13.17 113.19 402 371 __________P___ -1 13.17 113.19 7 6 301
1899 WP MM 03:00:00 NR 13.34 112.90 371 361 __________P___ -1 13.34 112.90 7 7 301
1899 WP MM 04:00:00 NR 13.40 112.80 361 342 __________O___ -1 13.40 112.80 7 8 298
1899 WP MM 06:00:00 NR 13.52 112.56 342 305 __________P___ -1 13.52 112.56 7 8 297
1899 WP MM 09:00:00 NR 13.71 112.18 305 269 __________P___ -1 13.71 112.18 7 9 298
1899 WP MM 12:00:00 NR 13.91 111.79 269 227 __________P___ -1 13.91 111.79 7 9 299
1899 WP MM 15:00:00 NR 14.13 111.42 227 218 __________P___ -1 14.13 111.42 7 8 301
1899 WP MM 16:00:00 NR 14.20 111.30 218 199 __________O___ -1 14.20 111.30 3 8 305
1899 WP MM 18:00:00 NR 14.35 111.10 199 175 __________P___ -1 14.35 111.10 3 7 309
1899 WP MM 21:00:00 NR 14.57 110.82 179 161 __________P___ -1 14.57 110.82 3 7 311
1899 WP MM 1899-11-07 00:00:00 NR 14.80 110.55 161 133 __________P___ -1 14.80 110.55 3 7 312
1899 WP MM 03:00:00 NR 15.03 110.29 133 126 __________P___ -1 15.03 110.29 3 7 311
1899 WP MM 04:00:00 NR 15.10 110.20 126 111 __________O___ -1 15.10 110.20 4 7 305
1899 WP MM 06:00:00 NR 15.23 110.00 111 88 __________P___ -1 15.23 110.00 4 7 303
1899 WP MM 09:00:00 NR 15.41 109.69 88 69 __________P___ -1 15.41 109.69 4 7 303
1899 WP MM 12:00:00 NR 15.61 109.38 69 61 __________P___ -1 15.61 109.38 4 7 305
1899 WP MM 15:00:00 NR 15.82 109.09 61 61 __________P___ -1 15.82 109.09 4 7 309
1899 WP MM 16:00:00 NR 15.90 109.00 61 54 __________O___ -1 15.90 109.00 4 7 315
1899 WP MM 18:00:00 NR 16.07 108.83 54 46 __________P___ -1 16.07 108.83 4 7 320
1899 WP MM 21:00:00 NR 16.36 108.59 55 48 __________P___ -1 16.36 108.59 4 7 324
1899 WP MM 1899-11-08 00:00:00 NR 16.67 108.38 64 59 __________P___ -1 16.67 108.38 4 8 327
1899 WP MM 03:00:00 NR 16.99 108.17 78 69 __________P___ -1 16.99 108.17 4 8 329
1899 WP MM 04:00:00 NR 17.10 108.10 77 77 __________O___ -1 17.10 108.10 4 7 327
1899 WP MM 06:00:00 NR 17.30 107.95 89 84 __________P___ -1 17.30 107.95 4 7 326
1899 WP MM 09:00:00 NR 17.61 107.74 84 84 __________P___ -1 17.61 107.74 4 8 328
1899 WP MM 12:00:00 NR 17.94 107.54 99 97 __________P___ -1 17.94 107.54 4 8 331
1899 WP MM 15:00:00 NR 18.28 107.36 105 95 __________P___ -1 18.28 107.36 4 8 334
1899 WP MM 16:00:00 NR 18.40 107.30 100 95 __________O___ -1 18.40 107.30 4 8 338
1899 WP MM 18:00:00 NR 18.65 107.20 101 107 __________P___ -1 18.65 107.20 4 8 341
1899 WP MM 21:00:00 NR 19.04 107.06 122 98 __________P___ -1 19.04 107.06 4 8 343
1899 WP MM 1899-11-09 00:00:00 NR 19.44 106.95 98 45 __________P___ -1 19.44 106.95 4 9 345
1899 WP MM 03:00:00 NR 19.86 106.84 45 38 __________P___ -1 19.86 106.84 4 9 346
1899 WP MM 04:00:00 NR 20.00 106.80 38 __________O___ -1 20.00 106.80 4 9 348